createdAt,value
2022-10-17T00:01:55.713Z,95.85
2022-10-17T00:04:22.193Z,95.19
2022-10-17T00:06:48.510Z,95.13
2022-10-17T00:09:14.897Z,94.61
2022-10-17T00:11:41.213Z,94.80
2022-10-17T00:14:07.489Z,94.44
2022-10-17T00:16:38.789Z,94.43
2022-10-17T00:19:06.713Z,94.46
2022-10-17T00:21:33.601Z,94.09
2022-10-17T00:24:00.937Z,93.94
2022-10-17T00:26:29.544Z,93.96
2022-10-17T00:28:56.497Z,93.53
2022-10-17T00:31:24.452Z,93.01
2022-10-17T00:33:50.972Z,93.26
2022-10-17T00:36:23.276Z,92.70
2022-10-17T00:38:56.068Z,92.50
2022-10-17T00:41:29.263Z,92.66
2022-10-17T00:44:06.402Z,92.34
2022-10-17T00:46:35.595Z,92.42
2022-10-17T00:49:08.154Z,92.67
2022-10-17T00:51:43.447Z,92.56
2022-10-17T00:54:12.575Z,92.44
2022-10-17T00:56:40.364Z,92.40
2022-10-17T00:59:10.745Z,92.16
2022-10-17T01:01:37.199Z,92.22
2022-10-17T01:04:03.641Z,92.33
2022-10-17T01:06:29.995Z,92.47
2022-10-17T01:08:56.614Z,92.40
2022-10-17T01:12:07.851Z,92.19
2022-10-17T01:15:09.585Z,92.30
2022-10-17T01:18:06.560Z,92.14
2022-10-17T01:20:45.041Z,92.62
2022-10-17T01:23:30.006Z,92.76
2022-10-17T01:26:29.945Z,92.55
2022-10-17T01:29:16.255Z,92.79
2022-10-17T01:32:04.212Z,92.64
2022-10-17T01:34:44.860Z,92.76
2022-10-17T01:37:27.074Z,92.72
2022-10-17T01:40:16.062Z,92.47
2022-10-17T01:42:49.269Z,92.77
2022-10-17T01:45:47.726Z,92.57
2022-10-17T01:48:22.068Z,92.85
2022-10-17T01:50:54.403Z,92.90
2022-10-17T01:53:42.845Z,92.97
2022-10-17T01:56:13.055Z,93.07
2022-10-17T01:58:51.049Z,93.07
2022-10-17T02:01:19.049Z,93.10
2022-10-17T02:03:48.590Z,92.98
2022-10-17T02:06:14.920Z,93.15
2022-10-17T02:08:41.357Z,92.98
2022-10-17T02:11:15.065Z,93.16
2022-10-17T02:14:06.193Z,92.79
2022-10-17T02:16:38.639Z,93.06
2022-10-17T02:19:36.753Z,92.61
2022-10-17T02:22:16.210Z,92.88
2022-10-17T02:24:54.862Z,92.81
2022-10-17T02:27:34.669Z,93.05
2022-10-17T02:30:20.395Z,92.86
2022-10-17T02:32:55.295Z,92.95
2022-10-17T02:35:25.218Z,92.75
2022-10-17T02:37:53.146Z,92.77
2022-10-17T02:40:22.556Z,92.70
2022-10-17T02:42:52.712Z,92.82
2022-10-17T02:45:19.914Z,92.70
2022-10-17T02:47:56.833Z,92.74
2022-10-17T02:50:30.515Z,92.67
2022-10-17T02:53:02.981Z,92.40
2022-10-17T02:55:34.057Z,92.27
2022-10-17T02:58:06.593Z,92.66
2022-10-17T03:00:34.983Z,92.67
2022-10-17T03:03:01.322Z,92.77
2022-10-17T03:05:29.359Z,92.90
2022-10-17T03:07:56.431Z,92.90
2022-10-17T03:10:22.996Z,92.65
2022-10-17T03:12:49.405Z,92.50
2022-10-17T03:15:15.837Z,92.24
2022-10-17T03:17:42.270Z,92.07
2022-10-17T03:20:08.959Z,92.09
2022-10-17T03:22:35.377Z,92.13
2022-10-17T03:25:01.697Z,92.33
2022-10-17T03:27:28.246Z,92.14
2022-10-17T03:29:54.908Z,92.13
2022-10-17T03:32:21.258Z,91.92
2022-10-17T03:34:47.555Z,91.69
2022-10-17T03:37:13.878Z,92.09
2022-10-17T03:39:40.258Z,91.80
2022-10-17T03:42:06.601Z,91.93
2022-10-17T03:44:32.929Z,91.68
2022-10-17T03:46:59.254Z,92.02
2022-10-17T03:49:25.571Z,92.25
2022-10-17T03:51:51.896Z,92.04
2022-10-17T03:54:18.192Z,91.93
2022-10-17T03:56:44.596Z,91.91
2022-10-17T03:59:14.316Z,91.67
2022-10-17T04:01:40.976Z,91.85
2022-10-17T04:04:07.858Z,91.54
2022-10-17T04:06:34.432Z,91.48
2022-10-17T04:09:01.499Z,91.41
2022-10-17T04:11:27.823Z,91.59
2022-10-17T04:13:56.011Z,91.36
2022-10-17T04:16:23.571Z,91.46
2022-10-17T04:18:54.465Z,91.53
2022-10-17T04:21:21.327Z,91.36
2022-10-17T04:23:47.670Z,91.26
2022-10-17T04:26:14.005Z,91.21
2022-10-17T04:28:40.304Z,91.70
2022-10-17T04:31:11.546Z,91.52
2022-10-17T04:33:38.482Z,91.49
2022-10-17T04:36:07.544Z,91.37
2022-10-17T04:38:34.398Z,91.75
2022-10-17T04:41:03.222Z,91.23
2022-10-17T04:43:34.901Z,91.14
2022-10-17T04:46:04.162Z,91.01
2022-10-17T04:48:30.592Z,91.30
2022-10-17T04:50:59.121Z,90.80
2022-10-17T04:53:26.845Z,90.93
2022-10-17T04:55:53.684Z,91.09
2022-10-17T04:58:20.604Z,90.77
2022-10-17T05:00:46.971Z,90.69
2022-10-17T05:03:13.317Z,90.86
2022-10-17T05:05:40.991Z,90.78
2022-10-17T05:08:09.216Z,90.78
2022-10-17T05:10:41.449Z,90.71
2022-10-17T05:13:08.625Z,90.94
2022-10-17T05:15:35.818Z,90.49
2022-10-17T05:18:02.528Z,90.86
2022-10-17T05:20:29.199Z,91.19
2022-10-17T05:22:55.524Z,91.08
2022-10-17T05:25:22.037Z,90.83
2022-10-17T05:27:48.425Z,90.88
2022-10-17T05:30:14.730Z,91.28
2022-10-17T05:32:41.141Z,90.99
2022-10-17T05:35:07.472Z,91.19
2022-10-17T05:37:34.058Z,90.74
2022-10-17T05:40:00.356Z,91.16
2022-10-17T05:42:27.120Z,90.80
2022-10-17T05:44:53.669Z,90.84
2022-10-17T05:47:19.993Z,90.67
2022-10-17T05:49:51.564Z,90.19
2022-10-17T05:52:18.845Z,90.29
2022-10-17T05:54:45.223Z,90.04
2022-10-17T05:57:11.769Z,90.08
2022-10-17T05:59:38.064Z,89.87
2022-10-17T06:02:04.476Z,89.69
2022-10-17T06:04:30.873Z,89.66
2022-10-17T06:06:57.246Z,89.67
2022-10-17T06:09:24.124Z,89.60
2022-10-17T06:11:50.401Z,89.34
2022-10-17T06:14:16.801Z,89.58
2022-10-17T06:16:43.564Z,89.21
2022-10-17T06:19:11.441Z,89.66
2022-10-17T06:21:38.764Z,89.53
2022-10-17T06:24:05.312Z,89.58
2022-10-17T06:26:31.587Z,89.37
2022-10-17T06:28:58.024Z,89.41
2022-10-17T06:31:24.380Z,89.52
2022-10-17T06:33:50.687Z,89.01
2022-10-17T06:36:17.147Z,88.48
2022-10-17T06:38:43.460Z,88.06
2022-10-17T06:41:13.522Z,88.39
2022-10-17T06:43:43.109Z,88.10
2022-10-17T06:46:09.673Z,87.86
2022-10-17T06:48:36.023Z,87.41
2022-10-17T06:51:04.461Z,87.75
2022-10-17T06:53:33.277Z,87.22
2022-10-17T06:56:03.991Z,87.35
2022-10-17T06:58:32.556Z,87.11
2022-10-17T07:01:01.009Z,87.16
2022-10-17T07:03:28.244Z,87.23
2022-10-17T07:05:55.329Z,87.27
2022-10-17T07:08:22.008Z,87.31
2022-10-17T07:10:48.661Z,87.18
2022-10-17T07:13:15.674Z,87.35
2022-10-17T07:15:42.049Z,87.45
2022-10-17T07:18:08.377Z,87.52
2022-10-17T07:20:34.793Z,86.83
2022-10-17T07:23:01.107Z,86.79
2022-10-17T07:25:28.321Z,86.82
2022-10-17T07:27:54.622Z,86.82
2022-10-17T07:30:21.685Z,85.20
2022-10-17T07:32:48.568Z,85.41
2022-10-17T07:35:15.243Z,85.29
2022-10-17T07:37:41.694Z,85.46
2022-10-17T07:40:09.065Z,85.18
2022-10-17T07:45:06.805Z,84.99
2022-10-17T07:47:35.683Z,84.50
2022-10-17T07:50:05.937Z,84.79
2022-10-17T07:52:32.528Z,84.59
2022-10-17T07:54:59.541Z,83.93
2022-10-17T07:57:25.864Z,84.21
2022-10-17T07:59:54.084Z,83.90
2022-10-17T08:02:25.693Z,83.51
2022-10-17T08:04:52.718Z,83.52
2022-10-17T08:07:23.231Z,83.24
2022-10-17T08:09:50.758Z,83.14
2022-10-17T08:12:17.243Z,82.54
2022-10-17T08:14:44.254Z,81.96
2022-10-17T08:17:10.645Z,82.68
2022-10-17T08:19:40.395Z,82.15
2022-10-17T08:22:07.399Z,80.63
2022-10-17T08:24:33.691Z,79.48
2022-10-17T08:27:00.662Z,80.39
2022-10-17T08:29:27.134Z,78.23
2022-10-17T08:31:58.562Z,78.18
2022-10-17T08:34:27.907Z,77.63
2022-10-17T08:36:54.492Z,78.18
2022-10-17T08:39:20.913Z,78.28
2022-10-17T08:42:05.487Z,78.39
2022-10-17T08:44:57.053Z,76.62
2022-10-17T08:47:29.345Z,75.78
2022-10-17T08:49:59.662Z,76.26
2022-10-17T08:52:34.813Z,76.38
2022-10-17T08:55:01.258Z,75.36
2022-10-17T08:57:28.873Z,75.23
2022-10-17T08:59:56.657Z,73.21
2022-10-17T09:02:45.007Z,73.60
2022-10-17T09:05:26.897Z,71.54
2022-10-17T09:08:16.471Z,72.73
2022-10-17T09:11:10.360Z,72.22
2022-10-17T09:13:51.201Z,71.01
2022-10-17T09:16:37.287Z,68.86
2022-10-17T09:19:11.513Z,71.04
2022-10-17T09:21:43.761Z,69.29
2022-10-17T09:24:27.833Z,71.24
2022-10-17T09:26:55.698Z,72.64
2022-10-17T09:29:25.274Z,70.77
2022-10-17T09:32:02.338Z,71.54
2022-10-17T09:34:32.673Z,71.12
2022-10-17T09:37:01.157Z,73.51
2022-10-17T09:39:31.834Z,71.51
2022-10-17T09:42:00.813Z,73.90
2022-10-17T09:44:30.084Z,73.26
2022-10-17T09:47:07.144Z,73.74
2022-10-17T09:49:36.100Z,72.83
2022-10-17T09:52:12.105Z,72.82
2022-10-17T09:54:54.722Z,73.47
2022-10-17T09:57:22.323Z,72.31
2022-10-17T09:59:58.993Z,70.99
2022-10-17T10:02:27.222Z,70.86
2022-10-17T10:05:06.595Z,72.81
2022-10-17T10:07:36.529Z,72.00
2022-10-17T10:10:06.186Z,72.08
2022-10-17T10:12:38.577Z,73.02
2022-10-17T10:15:32.182Z,73.00
2022-10-17T10:17:58.486Z,70.84
2022-10-17T10:20:34.747Z,72.70
2022-10-17T10:23:18.500Z,72.74
2022-10-17T10:25:55.556Z,70.63
2022-10-17T10:28:26.519Z,69.36
2022-10-17T10:30:54.597Z,70.28
2022-10-17T10:33:23.405Z,70.96
2022-10-17T10:36:03.695Z,71.75
2022-10-17T10:38:32.987Z,70.38
2022-10-17T10:41:05.102Z,70.77
2022-10-17T10:43:42.189Z,70.82
2022-10-17T10:46:27.203Z,71.86
2022-10-17T10:48:59.511Z,69.35
2022-10-17T10:51:43.033Z,72.17
2022-10-17T10:54:15.173Z,70.31
2022-10-17T10:56:48.706Z,71.44
2022-10-17T10:59:42.638Z,70.93
2022-10-17T11:02:20.780Z,72.68
2022-10-17T11:05:03.562Z,71.47
2022-10-17T11:07:34.907Z,72.42
2022-10-17T11:10:44.297Z,73.85
2022-10-17T11:13:18.026Z,73.53
2022-10-17T11:15:50.301Z,72.54
2022-10-17T11:18:47.304Z,71.10
2022-10-17T11:21:23.598Z,71.93
2022-10-17T11:24:14.267Z,72.84
2022-10-17T11:26:46.297Z,72.03
2022-10-17T11:29:13.646Z,73.23
2022-10-17T11:31:47.218Z,73.46
2022-10-17T11:34:25.310Z,73.81
2022-10-17T11:36:56.854Z,75.09
2022-10-17T11:39:39.209Z,74.68
2022-10-17T11:42:12.649Z,75.04
2022-10-17T11:44:40.896Z,72.31
2022-10-17T11:47:23.536Z,72.84
2022-10-17T11:53:09.757Z,73.62
2022-10-17T11:55:38.242Z,74.30
2022-10-17T11:58:30.520Z,74.41
2022-10-17T12:01:23.546Z,74.39
2022-10-17T12:04:17.681Z,74.43
2022-10-17T12:07:10.681Z,74.92
2022-10-17T12:09:57.133Z,75.41
2022-10-17T12:12:32.496Z,72.66
2022-10-17T12:15:14.090Z,74.32
2022-10-17T12:17:55.504Z,74.77
2022-10-17T12:20:24.752Z,75.96
2022-10-17T12:22:55.281Z,75.50
2022-10-17T12:25:26.292Z,74.75
2022-10-17T12:28:10.210Z,75.93
2022-10-17T12:30:36.733Z,75.18
2022-10-17T12:33:14.526Z,75.77
2022-10-17T12:35:40.820Z,75.83
2022-10-17T12:38:23.742Z,75.21
2022-10-17T12:40:52.515Z,75.94
2022-10-17T12:43:27.609Z,76.14
2022-10-17T12:46:01.838Z,76.31
2022-10-17T12:48:34.242Z,75.61
2022-10-17T12:54:09.650Z,76.47
2022-10-17T12:56:54.111Z,77.06
2022-10-17T12:59:29.714Z,76.38
2022-10-17T13:02:03.306Z,76.65
2022-10-17T13:04:31.414Z,75.17
2022-10-17T13:07:00.572Z,75.69
2022-10-17T13:09:35.322Z,78.05
2022-10-17T13:12:06.276Z,77.75
2022-10-17T13:14:34.019Z,77.80
2022-10-17T13:17:03.916Z,78.19
2022-10-17T13:19:42.076Z,79.56
2022-10-17T13:22:30.752Z,79.05
2022-10-17T13:25:15.881Z,79.60
2022-10-17T13:27:42.913Z,79.90
2022-10-17T13:30:24.765Z,80.12
2022-10-17T13:32:53.484Z,80.04
2022-10-17T13:36:00.091Z,79.69
2022-10-17T13:38:26.718Z,80.23
2022-10-17T13:41:01.389Z,80.20
2022-10-17T13:43:32.829Z,80.41
2022-10-17T13:46:25.645Z,80.02
2022-10-17T13:48:51.884Z,79.99
2022-10-17T13:51:18.401Z,79.49
2022-10-17T13:53:44.839Z,79.38
2022-10-17T13:56:28.523Z,79.57
2022-10-17T13:59:17.627Z,80.67
2022-10-17T14:01:44.184Z,80.28
2022-10-17T14:04:19.408Z,79.87
2022-10-17T14:06:49.618Z,80.37
2022-10-17T14:09:23.449Z,81.25
2022-10-17T14:12:16.437Z,81.13
2022-10-17T14:15:09.401Z,80.92
2022-10-17T14:17:35.908Z,79.79
2022-10-17T14:20:26.644Z,80.29
2022-10-17T14:23:17.469Z,80.88
2022-10-17T14:25:40.525Z,79.46
2022-10-17T14:28:13.860Z,78.24
2022-10-17T14:30:57.517Z,79.54
2022-10-17T14:33:30.805Z,78.23
2022-10-17T14:35:59.941Z,80.29
2022-10-17T14:38:28.163Z,80.38
2022-10-17T14:41:41.822Z,80.06
2022-10-17T14:44:19.484Z,80.20
2022-10-17T14:46:50.713Z,79.58
2022-10-17T14:49:24.835Z,79.87
2022-10-17T14:52:18.768Z,80.27
2022-10-17T14:54:47.386Z,81.41
2022-10-17T14:57:26.666Z,80.88
2022-10-17T14:59:57.041Z,80.96
2022-10-17T15:02:28.638Z,81.63
2022-10-17T15:04:55.649Z,79.48
2022-10-17T15:07:23.455Z,81.20
2022-10-17T15:09:51.820Z,81.41
2022-10-17T15:12:21.075Z,79.99
2022-10-17T15:14:48.448Z,80.04
2022-10-17T15:17:20.530Z,78.41
2022-10-17T15:19:47.462Z,78.20
2022-10-17T15:22:14.681Z,75.60
2022-10-17T15:24:40.968Z,75.62
2022-10-17T15:27:15.510Z,75.05
2022-10-17T15:29:41.829Z,75.17
2022-10-17T15:32:08.345Z,74.82
2022-10-17T15:34:34.665Z,73.66
2022-10-17T15:37:01.200Z,73.80
2022-10-17T15:39:27.536Z,73.03
2022-10-17T15:41:53.877Z,72.96
2022-10-17T15:44:20.146Z,72.34
2022-10-17T15:46:46.511Z,72.27
2022-10-17T15:49:17.035Z,71.99
2022-10-17T15:51:43.505Z,71.50
2022-10-17T15:54:09.889Z,71.34
2022-10-17T15:56:42.106Z,70.88
2022-10-17T15:59:18.330Z,71.15
2022-10-17T16:01:45.154Z,71.57
2022-10-17T16:04:14.671Z,71.50
2022-10-17T16:06:42.370Z,72.00
2022-10-17T16:09:08.790Z,72.68
2022-10-17T16:11:40.558Z,72.98
2022-10-17T16:14:16.083Z,72.93
2022-10-17T16:16:42.822Z,72.82
2022-10-17T16:19:09.338Z,73.31
2022-10-17T16:21:38.911Z,73.57
2022-10-17T16:24:06.105Z,73.94
2022-10-17T16:26:32.548Z,74.63
2022-10-17T16:29:02.564Z,75.25
2022-10-17T16:31:32.944Z,76.46
2022-10-17T16:34:00.613Z,77.38
2022-10-17T16:36:27.373Z,78.46
2022-10-17T16:38:54.341Z,80.01
2022-10-17T16:41:25.108Z,80.95
2022-10-17T16:43:54.007Z,82.04
2022-10-17T16:46:20.928Z,82.77
2022-10-17T16:48:47.967Z,83.62
2022-10-17T16:51:15.934Z,84.82
2022-10-17T16:53:45.280Z,84.85
2022-10-17T16:56:13.833Z,85.91
2022-10-17T16:58:41.589Z,86.31
2022-10-17T17:01:16.739Z,86.54
2022-10-17T17:03:44.721Z,86.97
2022-10-17T17:06:19.070Z,87.59
2022-10-17T17:08:45.475Z,88.19
2022-10-17T17:11:14.110Z,88.16
2022-10-17T17:13:41.211Z,89.11
2022-10-17T17:16:14.014Z,89.13
2022-10-17T17:18:41.201Z,89.25
2022-10-17T17:21:09.782Z,89.72
2022-10-17T17:23:38.329Z,90.15
2022-10-17T17:26:12.187Z,89.83
2022-10-17T17:28:39.295Z,89.75
2022-10-17T17:31:11.173Z,90.25
2022-10-17T17:33:39.308Z,90.46
2022-10-17T17:36:06.200Z,90.33
2022-10-17T17:38:34.497Z,90.25
2022-10-17T17:41:01.048Z,90.20
2022-10-17T17:43:27.748Z,90.21
2022-10-17T17:45:54.437Z,90.35
2022-10-17T17:48:20.974Z,90.24
2022-10-17T17:50:47.630Z,90.58
2022-10-17T17:53:17.079Z,90.37
2022-10-17T17:55:44.263Z,90.37
2022-10-17T17:58:12.357Z,90.51
2022-10-17T18:00:40.518Z,90.58
2022-10-17T18:03:07.118Z,90.69
2022-10-17T18:05:33.757Z,90.39
2022-10-17T18:08:00.056Z,90.44
2022-10-17T18:10:28.315Z,90.54
2022-10-17T18:12:54.673Z,90.55
2022-10-17T18:15:21.134Z,90.73
2022-10-17T18:17:47.960Z,91.07
2022-10-17T18:20:14.313Z,91.56
2022-10-17T18:22:40.618Z,91.41
2022-10-17T18:25:07.270Z,91.56
2022-10-17T18:27:33.634Z,91.30
2022-10-17T18:29:59.940Z,91.50
2022-10-17T18:32:26.399Z,91.40
2022-10-17T18:34:52.680Z,91.42
2022-10-17T18:37:19.002Z,91.57
2022-10-17T18:39:49.165Z,91.57
2022-10-17T18:42:15.736Z,91.83
2022-10-17T18:44:42.079Z,91.84
2022-10-17T18:47:08.393Z,91.98
2022-10-17T18:49:35.896Z,92.22
2022-10-17T18:52:02.390Z,92.31
2022-10-17T18:54:29.246Z,92.13
2022-10-17T18:56:56.254Z,91.93
2022-10-17T18:59:22.797Z,92.20
2022-10-17T19:01:49.386Z,92.50
2022-10-17T19:04:15.911Z,92.40
2022-10-17T19:06:42.791Z,92.65
2022-10-17T19:09:11.268Z,92.46
2022-10-17T19:11:38.755Z,92.66
2022-10-17T19:14:13.340Z,92.61
2022-10-17T19:16:44.083Z,92.72
2022-10-17T19:19:24.856Z,92.76
2022-10-17T19:21:51.577Z,92.32
2022-10-17T19:24:23.854Z,92.16
2022-10-17T19:26:53.396Z,91.90
2022-10-17T19:29:22.030Z,91.30
2022-10-17T19:31:49.248Z,91.67
2022-10-17T19:34:16.611Z,91.68
2022-10-17T19:36:43.369Z,91.58
2022-10-17T19:39:20.866Z,91.77
2022-10-17T19:41:48.214Z,91.64
2022-10-17T19:44:15.266Z,91.89
2022-10-17T19:46:44.273Z,91.82
2022-10-17T19:49:11.587Z,91.37
2022-10-17T19:51:37.980Z,91.08
2022-10-17T19:54:04.583Z,90.69
2022-10-17T19:56:33.073Z,90.50
2022-10-17T19:58:59.549Z,90.19
2022-10-17T20:01:28.868Z,89.29
2022-10-17T20:03:55.752Z,89.30
2022-10-17T20:06:22.621Z,89.12
2022-10-17T20:08:49.863Z,89.11
2022-10-17T20:11:21.593Z,89.96
2022-10-17T20:13:48.962Z,90.60
2022-10-17T20:16:18.806Z,90.91
2022-10-17T20:18:45.265Z,90.99
2022-10-17T20:21:14.676Z,90.76
2022-10-17T20:23:41.638Z,91.32
2022-10-17T20:26:26.016Z,91.36
2022-10-17T20:29:01.184Z,91.66
2022-10-17T20:31:27.612Z,91.79
2022-10-17T20:33:58.701Z,92.07
2022-10-17T20:36:25.403Z,91.50
2022-10-17T20:38:56.388Z,91.54
2022-10-17T20:41:23.648Z,91.91
2022-10-17T20:43:51.755Z,92.13
2022-10-17T20:46:35.011Z,92.01
2022-10-17T20:49:02.881Z,92.54
2022-10-17T20:51:29.372Z,92.40
2022-10-17T20:56:28.310Z,92.68
2022-10-17T20:58:57.128Z,92.86
2022-10-17T21:01:24.398Z,93.03
2022-10-17T21:03:51.262Z,92.98
2022-10-17T21:06:18.913Z,92.99
2022-10-17T21:08:46.472Z,92.99
2022-10-17T21:11:24.237Z,93.30
2022-10-17T21:13:59.531Z,93.42
2022-10-17T21:16:27.028Z,93.81
2022-10-17T21:18:53.850Z,93.76
2022-10-17T21:21:23.373Z,93.76
2022-10-17T21:23:50.855Z,94.03
2022-10-17T21:26:18.276Z,93.98
2022-10-17T21:28:45.856Z,94.61
2022-10-17T21:31:23.629Z,94.30
2022-10-17T21:33:52.385Z,94.61
2022-10-17T21:36:19.538Z,94.51
2022-10-17T21:38:48.009Z,94.50
2022-10-17T21:41:16.124Z,94.73
2022-10-17T21:43:43.134Z,94.68
2022-10-17T21:46:16.421Z,94.84
2022-10-17T21:48:43.569Z,94.57
2022-10-17T21:51:15.781Z,94.74
2022-10-17T21:53:43.057Z,94.70
2022-10-17T21:56:12.117Z,94.77
2022-10-17T21:58:38.896Z,94.42
2022-10-17T22:01:20.462Z,94.70
2022-10-17T22:03:48.975Z,94.77
2022-10-17T22:06:38.854Z,94.86
2022-10-17T22:09:07.060Z,94.48
2022-10-17T22:11:35.028Z,94.95
2022-10-17T22:14:06.631Z,94.74
2022-10-17T22:16:33.896Z,94.75
2022-10-17T22:19:05.997Z,94.33
2022-10-17T22:21:34.645Z,94.99
2022-10-17T22:24:03.626Z,94.99
2022-10-17T22:26:31.785Z,95.06
2022-10-17T22:28:58.234Z,95.44
2022-10-17T22:31:25.133Z,95.05
2022-10-17T22:33:51.513Z,95.42
2022-10-17T22:36:18.537Z,95.22
2022-10-17T22:38:45.076Z,95.13
2022-10-17T22:41:11.371Z,95.29
2022-10-17T22:43:37.672Z,95.33
2022-10-17T22:46:06.121Z,95.24
2022-10-17T22:48:33.043Z,95.25
2022-10-17T22:51:00.244Z,95.67
2022-10-17T22:53:27.402Z,95.52
2022-10-17T22:55:56.753Z,95.60
2022-10-17T22:58:23.289Z,95.89
2022-10-17T23:00:51.002Z,96.23
2022-10-17T23:03:18.465Z,96.23
2022-10-17T23:05:44.829Z,95.79
2022-10-17T23:08:12.553Z,95.80
2022-10-17T23:10:39.614Z,95.69
2022-10-17T23:13:06.614Z,95.68
2022-10-17T23:15:33.772Z,96.39
2022-10-17T23:18:01.265Z,96.45
2022-10-17T23:20:29.108Z,96.23
2022-10-17T23:22:55.841Z,95.98
2022-10-17T23:25:22.163Z,95.86
2022-10-17T23:27:48.514Z,96.03
2022-10-17T23:30:15.361Z,96.16
2022-10-17T23:32:42.484Z,96.66
2022-10-17T23:35:09.593Z,96.67
2022-10-17T23:37:36.217Z,96.67
2022-10-17T23:40:02.903Z,96.86
2022-10-17T23:42:29.246Z,96.64
2022-10-17T23:44:55.529Z,96.74
2022-10-17T23:47:22.075Z,96.70
2022-10-17T23:49:48.434Z,96.57
2022-10-17T23:52:14.908Z,96.43
2022-10-17T23:57:08.463Z,96.88
2022-10-17T23:59:34.767Z,96.97
